sensor_id;sensor_type;location;lat;lon;timestamp;pressure;altitude;pressure_sealevel;temperature;humidity
28927;BME280;16038;47.692;9.400;2024-01-27T00:01:17;98287.38;;;3.88;100.00
28927;BME280;16038;47.692;9.400;2024-01-27T00:03:42;98292.19;;;3.96;100.00
28927;BME280;16038;47.692;9.400;2024-01-27T00:06:07;98287.44;;;4.12;100.00
28927;BME280;16038;47.692;9.400;2024-01-27T00:08:33;98292.47;;;4.24;100.00
28927;BME280;16038;47.692;9.400;2024-01-27T00:10:59;98283.66;;;4.37;100.00
28927;BME280;16038;47.692;9.400;2024-01-27T00:13:24;98288.19;;;4.47;100.00
28927;BME280;16038;47.692;9.400;2024-01-27T00:15:50;98282.19;;;4.50;100.00
28927;BME280;16038;47.692;9.400;2024-01-27T00:18:16;98293.63;;;4.47;100.00
28927;BME280;16038;47.692;9.400;2024-01-27T00:20:42;98294.97;;;4.45;100.00
28927;BME280;16038;47.692;9.400;2024-01-27T00:23:07;98295.56;;;4.42;100.00
28927;BME280;16038;47.692;9.400;2024-01-27T00:25:33;98304.41;;;4.52;100.00
28927;BME280;16038;47.692;9.400;2024-01-27T00:27:59;98312.31;;;4.49;100.00
28927;BME280;16038;47.692;9.400;2024-01-27T00:30:24;98310.19;;;4.46;100.00
28927;BME280;16038;47.692;9.400;2024-01-27T00:32:50;98309.31;;;4.50;100.00
28927;BME280;16038;47.692;9.400;2024-01-27T00:35:16;98304.94;;;4.54;100.00
28927;BME280;16038;47.692;9.400;2024-01-27T00:37:41;98304.47;;;4.47;100.00
28927;BME280;16038;47.692;9.400;2024-01-27T00:40:10;98305.72;;;4.31;100.00
28927;BME280;16038;47.692;9.400;2024-01-27T00:42:37;98308.25;;;4.22;100.00
28927;BME280;16038;47.692;9.400;2024-01-27T00:45:04;98316.66;;;4.20;100.00
28927;BME280;16038;47.692;9.400;2024-01-27T00:47:30;98319.59;;;4.24;100.00
28927;BME280;16038;47.692;9.400;2024-01-27T00:49:55;98316.75;;;4.39;100.00
28927;BME280;16038;47.692;9.400;2024-01-27T00:52:21;98318.50;;;4.54;100.00
28927;BME280;16038;47.692;9.400;2024-01-27T00:54:46;98314.56;;;4.66;100.00
28927;BME280;16038;47.692;9.400;2024-01-27T00:57:12;98320.81;;;4.66;100.00
28927;BME280;16038;47.692;9.400;2024-01-27T00:59:37;98312.28;;;4.54;100.00
28927;BME280;16038;47.692;9.400;2024-01-27T01:02:04;98317.94;;;4.57;100.00
28927;BME280;16038;47.692;9.400;2024-01-27T01:04:29;98326.81;;;4.63;100.00
28927;BME280;16038;47.692;9.400;2024-01-27T01:06:55;98322.09;;;4.74;100.00
28927;BME280;16038;47.692;9.400;2024-01-27T01:09:20;98321.81;;;4.75;100.00
28927;BME280;16038;47.692;9.400;2024-01-27T01:11:45;98324.22;;;4.77;100.00
28927;BME280;16038;47.692;9.400;2024-01-27T01:14:11;98323.97;;;4.73;100.00
28927;BME280;16038;47.692;9.400;2024-01-27T01:16:37;98330.53;;;4.72;100.00
28927;BME280;16038;47.692;9.400;2024-01-27T01:19:02;98323.47;;;4.71;100.00
28927;BME280;16038;47.692;9.400;2024-01-27T01:21:27;98324.06;;;4.68;100.00
28927;BME280;16038;47.692;9.400;2024-01-27T01:23:53;98325.66;;;4.69;100.00
28927;BME280;16038;47.692;9.400;2024-01-27T01:26:19;98321.63;;;4.67;100.00
28927;BME280;16038;47.692;9.400;2024-01-27T01:28:44;98333.38;;;4.57;100.00
28927;BME280;16038;47.692;9.400;2024-01-27T01:31:10;98325.25;;;4.57;100.00
28927;BME280;16038;47.692;9.400;2024-01-27T01:33:35;98330.91;;;4.60;100.00
28927;BME280;16038;47.692;9.400;2024-01-27T01:36:00;98329.06;;;4.56;100.00
28927;BME280;16038;47.692;9.400;2024-01-27T01:38:26;98333.78;;;4.45;100.00
28927;BME280;16038;47.692;9.400;2024-01-27T01:40:51;98346.84;;;4.43;100.00
28927;BME280;16038;47.692;9.400;2024-01-27T01:43:17;98344.06;;;4.19;100.00
28927;BME280;16038;47.692;9.400;2024-01-27T01:45:42;98353.09;;;4.09;100.00
28927;BME280;16038;47.692;9.400;2024-01-27T01:48:08;98349.25;;;4.15;100.00
28927;BME280;16038;47.692;9.400;2024-01-27T01:50:34;98348.41;;;4.20;100.00
28927;BME280;16038;47.692;9.400;2024-01-27T01:53:00;98345.41;;;4.21;100.00
28927;BME280;16038;47.692;9.400;2024-01-27T01:55:26;98344.00;;;4.24;100.00
28927;BME280;16038;47.692;9.400;2024-01-27T01:57:51;98337.28;;;4.21;100.00
28927;BME280;16038;47.692;9.400;2024-01-27T02:00:17;98335.34;;;4.22;100.00
28927;BME280;16038;47.692;9.400;2024-01-27T02:02:45;98326.41;;;4.21;100.00
28927;BME280;16038;47.692;9.400;2024-01-27T02:05:14;98335.41;;;4.17;100.00
28927;BME280;16038;47.692;9.400;2024-01-27T02:07:40;98333.03;;;4.05;100.00
28927;BME280;16038;47.692;9.400;2024-01-27T02:10:23;98340.16;;;3.96;100.00
28927;BME280;16038;47.692;9.400;2024-01-27T02:12:49;98333.19;;;3.90;100.00
28927;BME280;16038;47.692;9.400;2024-01-27T02:15:14;98340.78;;;3.88;100.00
28927;BME280;16038;47.692;9.400;2024-01-27T02:17:40;98345.09;;;3.89;100.00
28927;BME280;16038;47.692;9.400;2024-01-27T02:20:06;98337.06;;;3.78;100.00
28927;BME280;16038;47.692;9.400;2024-01-27T02:22:35;98337.63;;;3.75;100.00
28927;BME280;16038;47.692;9.400;2024-01-27T02:25:01;98330.31;;;3.71;100.00
28927;BME280;16038;47.692;9.400;2024-01-27T02:27:27;98339.31;;;3.66;100.00
28927;BME280;16038;47.692;9.400;2024-01-27T02:29:53;98337.72;;;3.60;100.00
28927;BME280;16038;47.692;9.400;2024-01-27T02:32:18;98342.34;;;3.59;100.00
28927;BME280;16038;47.692;9.400;2024-01-27T02:34:44;98347.78;;;3.54;100.00
28927;BME280;16038;47.692;9.400;2024-01-27T02:37:09;98349.16;;;3.52;100.00
28927;BME280;16038;47.692;9.400;2024-01-27T02:39:35;98343.47;;;3.53;100.00
28927;BME280;16038;47.692;9.400;2024-01-27T02:42:01;98344.56;;;3.47;100.00
28927;BME280;16038;47.692;9.400;2024-01-27T02:44:27;98351.38;;;3.44;100.00
28927;BME280;16038;47.692;9.400;2024-01-27T02:46:52;98356.25;;;3.42;100.00
28927;BME280;16038;47.692;9.400;2024-01-27T02:49:18;98356.81;;;3.39;100.00
28927;BME280;16038;47.692;9.400;2024-01-27T02:51:43;98357.06;;;3.38;100.00
28927;BME280;16038;47.692;9.400;2024-01-27T02:54:09;98359.28;;;3.31;100.00
28927;BME280;16038;47.692;9.400;2024-01-27T02:56:35;98358.78;;;3.18;100.00
28927;BME280;16038;47.692;9.400;2024-01-27T02:59:00;98359.38;;;3.10;100.00
28927;BME280;16038;47.692;9.400;2024-01-27T03:01:25;98353.41;;;3.13;100.00
28927;BME280;16038;47.692;9.400;2024-01-27T03:03:51;98361.25;;;3.10;100.00
28927;BME280;16038;47.692;9.400;2024-01-27T03:06:16;98366.13;;;3.13;100.00
28927;BME280;16038;47.692;9.400;2024-01-27T03:08:42;98368.53;;;3.19;100.00
28927;BME280;16038;47.692;9.400;2024-01-27T03:11:07;98367.16;;;3.22;100.00
28927;BME280;16038;47.692;9.400;2024-01-27T03:13:32;98370.19;;;3.15;100.00
28927;BME280;16038;47.692;9.400;2024-01-27T03:15:58;98367.25;;;3.06;100.00
28927;BME280;16038;47.692;9.400;2024-01-27T03:18:23;98361.31;;;2.99;100.00
28927;BME280;16038;47.692;9.400;2024-01-27T03:20:50;98380.56;;;2.93;100.00
28927;BME280;16038;47.692;9.400;2024-01-27T03:23:15;98387.06;;;2.86;100.00
28927;BME280;16038;47.692;9.400;2024-01-27T03:25:41;98387.38;;;2.64;100.00
28927;BME280;16038;47.692;9.400;2024-01-27T03:28:06;98379.84;;;2.46;100.00
28927;BME280;16038;47.692;9.400;2024-01-27T03:30:31;98388.22;;;2.39;100.00
28927;BME280;16038;47.692;9.400;2024-01-27T03:32:57;98386.88;;;2.21;100.00
28927;BME280;16038;47.692;9.400;2024-01-27T03:35:22;98385.25;;;2.05;100.00
28927;BME280;16038;47.692;9.400;2024-01-27T03:37:47;98382.81;;;1.93;100.00
28927;BME280;16038;47.692;9.400;2024-01-27T03:40:14;98381.19;;;1.97;100.00
28927;BME280;16038;47.692;9.400;2024-01-27T03:42:40;98384.19;;;2.01;100.00
28927;BME280;16038;47.692;9.400;2024-01-27T03:45:05;98397.41;;;1.97;100.00
28927;BME280;16038;47.692;9.400;2024-01-27T03:47:31;98395.25;;;1.94;100.00
28927;BME280;16038;47.692;9.400;2024-01-27T03:49:56;98397.66;;;1.90;100.00
28927;BME280;16038;47.692;9.400;2024-01-27T03:52:22;98399.56;;;1.85;100.00
28927;BME280;16038;47.692;9.400;2024-01-27T03:54:47;98400.66;;;1.84;100.00
28927;BME280;16038;47.692;9.400;2024-01-27T03:57:12;98408.22;;;2.02;100.00
28927;BME280;16038;47.692;9.400;2024-01-27T03:59:40;98417.16;;;2.13;100.00
28927;BME280;16038;47.692;9.400;2024-01-27T04:02:07;98414.44;;;2.08;100.00
28927;BME280;16038;47.692;9.400;2024-01-27T04:04:33;98416.06;;;2.14;100.00
28927;BME280;16038;47.692;9.400;2024-01-27T04:06:58;98419.03;;;2.18;100.00
28927;BME280;16038;47.692;9.400;2024-01-27T04:09:24;98416.88;;;2.09;100.00
28927;BME280;16038;47.692;9.400;2024-01-27T04:11:49;98423.09;;;1.89;100.00
28927;BME280;16038;47.692;9.400;2024-01-27T04:14:15;98426.03;;;1.78;100.00
28927;BME280;16038;47.692;9.400;2024-01-27T04:16:41;98426.84;;;1.73;100.00
28927;BME280;16038;47.692;9.400;2024-01-27T04:19:06;98426.81;;;1.68;100.00
28927;BME280;16038;47.692;9.400;2024-01-27T04:21:32;98424.63;;;1.65;100.00
28927;BME280;16038;47.692;9.400;2024-01-27T04:23:57;98422.72;;;1.55;100.00
28927;BME280;16038;47.692;9.400;2024-01-27T04:26:22;98428.13;;;1.50;100.00
28927;BME280;16038;47.692;9.400;2024-01-27T04:28:48;98421.34;;;1.47;100.00
28927;BME280;16038;47.692;9.400;2024-01-27T04:31:13;98424.81;;;1.38;100.00
28927;BME280;16038;47.692;9.400;2024-01-27T04:33:39;98427.75;;;1.31;100.00
28927;BME280;16038;47.692;9.400;2024-01-27T04:36:04;98432.28;;;1.15;100.00
28927;BME280;16038;47.692;9.400;2024-01-27T04:38:32;98427.84;;;0.93;100.00
28927;BME280;16038;47.692;9.400;2024-01-27T04:40:57;98436.03;;;0.66;100.00
28927;BME280;16038;47.692;9.400;2024-01-27T04:43:23;98430.84;;;0.54;100.00
28927;BME280;16038;47.692;9.400;2024-01-27T04:45:48;98435.09;;;0.45;100.00
28927;BME280;16038;47.692;9.400;2024-01-27T04:48:16;98438.25;;;0.37;100.00
28927;BME280;16038;47.692;9.400;2024-01-27T04:50:42;98439.56;;;0.29;100.00
28927;BME280;16038;47.692;9.400;2024-01-27T04:53:08;98447.03;;;0.22;100.00
28927;BME280;16038;47.692;9.400;2024-01-27T04:55:33;98439.22;;;0.21;100.00
28927;BME280;16038;47.692;9.400;2024-01-27T04:57:59;98446.50;;;0.25;100.00
28927;BME280;16038;47.692;9.400;2024-01-27T05:00:25;98447.94;;;0.33;100.00
28927;BME280;16038;47.692;9.400;2024-01-27T05:02:52;98446.94;;;0.44;100.00
28927;BME280;16038;47.692;9.400;2024-01-27T05:05:18;98444.19;;;0.39;100.00
28927;BME280;16038;47.692;9.400;2024-01-27T05:07:43;98446.56;;;0.30;100.00
28927;BME280;16038;47.692;9.400;2024-01-27T05:10:11;98437.72;;;0.35;100.00
28927;BME280;16038;47.692;9.400;2024-01-27T05:12:37;98443.41;;;0.38;100.00
28927;BME280;16038;47.692;9.400;2024-01-27T05:15:04;98446.59;;;0.35;100.00
28927;BME280;16038;47.692;9.400;2024-01-27T05:17:30;98442.84;;;0.36;100.00
28927;BME280;16038;47.692;9.400;2024-01-27T05:19:55;98440.69;;;0.38;100.00
28927;BME280;16038;47.692;9.400;2024-01-27T05:22:21;98445.00;;;0.34;100.00
28927;BME280;16038;47.692;9.400;2024-01-27T05:24:46;98446.59;;;0.35;100.00
28927;BME280;16038;47.692;9.400;2024-01-27T05:27:12;98439.59;;;0.34;100.00
28927;BME280;16038;47.692;9.400;2024-01-27T05:29:37;98446.59;;;0.35;100.00
28927;BME280;16038;47.692;9.400;2024-01-27T05:32:03;98446.25;;;0.27;100.00
28927;BME280;16038;47.692;9.400;2024-01-27T05:34:28;98450.84;;;0.26;100.00
28927;BME280;16038;47.692;9.400;2024-01-27T05:36:54;98450.03;;;0.26;100.00
28927;BME280;16038;47.692;9.400;2024-01-27T05:39:19;98448.66;;;0.23;100.00
28927;BME280;16038;47.692;9.400;2024-01-27T05:41:44;98446.44;;;0.15;100.00
28927;BME280;16038;47.692;9.400;2024-01-27T05:44:10;98450.69;;;0.11;100.00
28927;BME280;16038;47.692;9.400;2024-01-27T05:46:35;98454.47;;;0.10;100.00
28927;BME280;16038;47.692;9.400;2024-01-27T05:49:01;98449.03;;;0.05;100.00
28927;BME280;16038;47.692;9.400;2024-01-27T05:51:28;98463.00;;;0.02;100.00
28927;BME280;16038;47.692;9.400;2024-01-27T05:53:54;98459.94;;;-0.34;100.00
28927;BME280;16038;47.692;9.400;2024-01-27T05:56:19;98469.53;;;-0.44;100.00
28927;BME280;16038;47.692;9.400;2024-01-27T05:58:48;98465.28;;;-0.40;100.00
28927;BME280;16038;47.692;9.400;2024-01-27T06:01:14;98466.97;;;-0.33;100.00
28927;BME280;16038;47.692;9.400;2024-01-27T06:03:43;98462.75;;;-0.24;100.00
28927;BME280;16038;47.692;9.400;2024-01-27T06:06:08;98458.53;;;-0.15;100.00
28927;BME280;16038;47.692;9.400;2024-01-27T06:08:34;98463.00;;;-0.26;100.00
28927;BME280;16038;47.692;9.400;2024-01-27T06:10:59;98459.31;;;-0.42;100.00
28927;BME280;16038;47.692;9.400;2024-01-27T06:13:24;98466.41;;;-0.35;100.00
28927;BME280;16038;47.692;9.400;2024-01-27T06:15:50;98458.38;;;-0.30;100.00
28927;BME280;16038;47.692;9.400;2024-01-27T06:18:16;98458.63;;;-0.32;100.00
28927;BME280;16038;47.692;9.400;2024-01-27T06:20:41;98455.63;;;-0.35;100.00
28927;BME280;16038;47.692;9.400;2024-01-27T06:23:07;98459.38;;;-0.36;100.00
28927;BME280;16038;47.692;9.400;2024-01-27T06:25:33;98462.63;;;-0.34;100.00
28927;BME280;16038;47.692;9.400;2024-01-27T06:27:59;98468.91;;;-0.29;100.00
28927;BME280;16038;47.692;9.400;2024-01-27T06:30:24;98468.31;;;-0.31;100.00
28927;BME280;16038;47.692;9.400;2024-01-27T06:32:49;98461.56;;;-0.33;100.00
28927;BME280;16038;47.692;9.400;2024-01-27T06:35:15;98462.28;;;-0.43;100.00
28927;BME280;16038;47.692;9.400;2024-01-27T06:37:40;98473.59;;;-0.41;100.00
28927;BME280;16038;47.692;9.400;2024-01-27T06:40:06;98478.56;;;-0.55;100.00
28927;BME280;16038;47.692;9.400;2024-01-27T06:42:34;98475.97;;;-0.67;100.00
28927;BME280;16038;47.692;9.400;2024-01-27T06:44:59;98489.41;;;-0.89;100.00
28927;BME280;16038;47.692;9.400;2024-01-27T06:47:24;98492.09;;;-0.89;100.00
28927;BME280;16038;47.692;9.400;2024-01-27T06:49:50;98493.06;;;-0.78;100.00
28927;BME280;16038;47.692;9.400;2024-01-27T06:52:15;98500.50;;;-0.63;100.00
28927;BME280;16038;47.692;9.400;2024-01-27T06:54:40;98497.88;;;-0.58;100.00
28927;BME280;16038;47.692;9.400;2024-01-27T06:57:21;98499.94;;;-0.65;100.00
28927;BME280;16038;47.692;9.400;2024-01-27T06:59:51;98494.69;;;-0.77;100.00
28927;BME280;16038;47.692;9.400;2024-01-27T07:02:25;98491.63;;;-0.86;100.00
28927;BME280;16038;47.692;9.400;2024-01-27T07:04:51;98497.06;;;-0.81;100.00
28927;BME280;16038;47.692;9.400;2024-01-27T07:07:18;98488.97;;;-1.20;100.00
28927;BME280;16038;47.692;9.400;2024-01-27T07:09:46;98498.78;;;-1.47;100.00
28927;BME280;16038;47.692;9.400;2024-01-27T07:12:11;98494.03;;;-1.57;100.00
28927;BME280;16038;47.692;9.400;2024-01-27T07:14:36;98507.22;;;-1.56;100.00
28927;BME280;16038;47.692;9.400;2024-01-27T07:17:03;98515.97;;;-1.31;100.00
28927;BME280;16038;47.692;9.400;2024-01-27T07:19:29;98518.06;;;-1.17;100.00
28927;BME280;16038;47.692;9.400;2024-01-27T07:21:54;98519.19;;;-1.12;100.00
28927;BME280;16038;47.692;9.400;2024-01-27T07:24:20;98509.41;;;-1.02;100.00
28927;BME280;16038;47.692;9.400;2024-01-27T07:26:45;98513.22;;;-0.98;100.00
28927;BME280;16038;47.692;9.400;2024-01-27T07:29:11;98512.00;;;-0.90;100.00
28927;BME280;16038;47.692;9.400;2024-01-27T07:31:36;98513.59;;;-0.72;100.00
28927;BME280;16038;47.692;9.400;2024-01-27T07:34:02;98510.91;;;-0.50;100.00
28927;BME280;16038;47.692;9.400;2024-01-27T07:36:27;98507.59;;;-0.35;100.00
28927;BME280;16038;47.692;9.400;2024-01-27T07:38:57;98505.66;;;-0.17;100.00
28927;BME280;16038;47.692;9.400;2024-01-27T07:41:23;98514.50;;;0.05;100.00
28927;BME280;16038;47.692;9.400;2024-01-27T07:43:48;98510.59;;;0.45;100.00
28927;BME280;16038;47.692;9.400;2024-01-27T07:46:13;98511.38;;;1.16;100.00
28927;BME280;16038;47.692;9.400;2024-01-27T07:48:39;98510.13;;;1.97;100.00
28927;BME280;16038;47.692;9.400;2024-01-27T07:51:04;98514.25;;;2.61;100.00
28927;BME280;16038;47.692;9.400;2024-01-27T07:53:29;98514.47;;;3.31;100.00
28927;BME280;16038;47.692;9.400;2024-01-27T07:55:55;98509.63;;;3.98;100.00
28927;BME280;16038;47.692;9.400;2024-01-27T07:58:21;98475.50;;;4.32;100.00
28927;BME280;16038;47.692;9.400;2024-01-27T08:00:50;98475.22;;;4.68;100.00
28927;BME280;16038;47.692;9.400;2024-01-27T08:03:15;98477.00;;;5.36;100.00
28927;BME280;16038;47.692;9.400;2024-01-27T08:05:41;98480.28;;;6.24;100.00
28927;BME280;16038;47.692;9.400;2024-01-27T08:08:06;98478.19;;;6.87;100.00
28927;BME280;16038;47.692;9.400;2024-01-27T08:10:32;98490.59;;;7.40;100.00
28927;BME280;16038;47.692;9.400;2024-01-27T08:12:57;98490.50;;;7.87;100.00
28927;BME280;16038;47.692;9.400;2024-01-27T08:15:22;98502.19;;;8.01;100.00
28927;BME280;16038;47.692;9.400;2024-01-27T08:17:48;98499.44;;;8.15;99.70
28927;BME280;16038;47.692;9.400;2024-01-27T08:20:13;98508.63;;;8.19;93.87
28927;BME280;16038;47.692;9.400;2024-01-27T08:22:39;98509.22;;;8.30;95.36
28927;BME280;16038;47.692;9.400;2024-01-27T08:25:05;98514.59;;;8.21;93.46
28927;BME280;16038;47.692;9.400;2024-01-27T08:27:31;98510.31;;;8.42;91.40
28927;BME280;16038;47.692;9.400;2024-01-27T08:29:56;98514.09;;;8.92;89.43
28927;BME280;16038;47.692;9.400;2024-01-27T08:32:22;98500.78;;;8.99;89.46
28927;BME280;16038;47.692;9.400;2024-01-27T08:34:47;98494.75;;;7.37;100.00
28927;BME280;16038;47.692;9.400;2024-01-27T08:37:18;98478.81;;;6.13;100.00
28927;BME280;16038;47.692;9.400;2024-01-27T08:39:45;98480.59;;;6.75;100.00
28927;BME280;16038;47.692;9.400;2024-01-27T08:42:11;98468.06;;;6.22;100.00
28927;BME280;16038;47.692;9.400;2024-01-27T08:44:39;98477.47;;;7.83;100.00
28927;BME280;16038;47.692;9.400;2024-01-27T08:47:05;98487.50;;;8.84;97.98
28927;BME280;16038;47.692;9.400;2024-01-27T08:49:31;98476.53;;;9.37;93.46
28927;BME280;16038;47.692;9.400;2024-01-27T08:51:57;98476.31;;;9.25;83.17
28927;BME280;16038;47.692;9.400;2024-01-27T08:54:22;98471.97;;;9.64;86.85
28927;BME280;16038;47.692;9.400;2024-01-27T08:56:48;98471.59;;;9.08;84.50
28927;BME280;16038;47.692;9.400;2024-01-27T08:59:13;98468.88;;;8.86;90.27
28927;BME280;16038;47.692;9.400;2024-01-27T09:01:38;98467.75;;;8.64;96.72
28927;BME280;16038;47.692;9.400;2024-01-27T09:04:04;98467.63;;;9.23;95.86
28927;BME280;16038;47.692;9.400;2024-01-27T09:06:29;98488.81;;;10.06;92.02
28927;BME280;16038;47.692;9.400;2024-01-27T09:08:55;98494.31;;;10.15;96.30
28927;BME280;16038;47.692;9.400;2024-01-27T09:11:20;98496.47;;;10.70;91.33
28927;BME280;16038;47.692;9.400;2024-01-27T09:13:49;98495.22;;;9.84;87.14
28927;BME280;16038;47.692;9.400;2024-01-27T09:16:17;98495.63;;;11.05;81.04
28927;BME280;16038;47.692;9.400;2024-01-27T09:18:43;98508.50;;;11.13;75.82
28927;BME280;16038;47.692;9.400;2024-01-27T09:21:08;98503.91;;;11.91;72.56
28927;BME280;16038;47.692;9.400;2024-01-27T09:23:34;98511.88;;;11.19;73.68
28927;BME280;16038;47.692;9.400;2024-01-27T09:26:00;98507.16;;;11.75;73.79
28927;BME280;16038;47.692;9.400;2024-01-27T09:28:25;98519.16;;;12.51;69.08
28927;BME280;16038;47.692;9.400;2024-01-27T09:30:51;98521.59;;;12.02;68.21
28927;BME280;16038;47.692;9.400;2024-01-27T09:33:17;98507.97;;;11.28;67.65
28927;BME280;16038;47.692;9.400;2024-01-27T09:35:48;98510.81;;;10.76;76.29
28927;BME280;16038;47.692;9.400;2024-01-27T09:38:14;98507.53;;;10.13;80.85
28927;BME280;16038;47.692;9.400;2024-01-27T09:40:40;98497.69;;;8.47;95.88
28927;BME280;16038;47.692;9.400;2024-01-27T09:43:06;98478.69;;;7.77;100.00
28927;BME280;16038;47.692;9.400;2024-01-27T09:45:32;98485.25;;;9.97;98.51
28927;BME280;16038;47.692;9.400;2024-01-27T09:47:59;98487.41;;;8.66;97.48
28927;BME280;16038;47.692;9.400;2024-01-27T09:50:25;98494.25;;;8.41;100.00
28927;BME280;16038;47.692;9.400;2024-01-27T09:52:52;98479.09;;;9.34;96.80
28927;BME280;16038;47.692;9.400;2024-01-27T09:55:17;98497.69;;;10.21;86.23
28927;BME280;16038;47.692;9.400;2024-01-27T09:57:44;98497.81;;;11.29;75.87
28927;BME280;16038;47.692;9.400;2024-01-27T10:00:10;98487.09;;;10.89;82.55
28927;BME280;16038;47.692;9.400;2024-01-27T10:02:39;98491.03;;;11.35;73.95
28927;BME280;16038;47.692;9.400;2024-01-27T10:05:11;98489.47;;;10.03;83.90
28927;BME280;16038;47.692;9.400;2024-01-27T10:07:36;98486.66;;;8.52;92.78
28927;BME280;16038;47.692;9.400;2024-01-27T10:10:02;98478.44;;;9.28;100.00
28927;BME280;16038;47.692;9.400;2024-01-27T10:12:28;98493.72;;;9.29;93.79
28927;BME280;16038;47.692;9.400;2024-01-27T10:14:54;98484.16;;;8.14;98.68
28927;BME280;16038;47.692;9.400;2024-01-27T10:17:23;98472.94;;;7.51;100.00
28927;BME280;16038;47.692;9.400;2024-01-27T10:20:03;98465.34;;;7.34;100.00
28927;BME280;16038;47.692;9.400;2024-01-27T10:22:39;98477.41;;;7.00;100.00
28927;BME280;16038;47.692;9.400;2024-01-27T10:25:06;98467.50;;;6.91;100.00
28927;BME280;16038;47.692;9.400;2024-01-27T10:27:31;98483.03;;;7.51;100.00
28927;BME280;16038;47.692;9.400;2024-01-27T10:29:57;98469.50;;;7.87;100.00
28927;BME280;16038;47.692;9.400;2024-01-27T10:32:23;98475.34;;;7.66;100.00
28927;BME280;16038;47.692;9.400;2024-01-27T10:35:05;98478.47;;;8.01;97.80
28927;BME280;16038;47.692;9.400;2024-01-27T10:37:33;98469.09;;;8.30;97.22
28927;BME280;16038;47.692;9.400;2024-01-27T10:40:08;98461.50;;;7.91;91.79
28927;BME280;16038;47.692;9.400;2024-01-27T10:42:35;98469.03;;;8.08;81.53
28927;BME280;16038;47.692;9.400;2024-01-27T10:45:01;98476.69;;;7.69;89.29
28927;BME280;16038;47.692;9.400;2024-01-27T10:47:28;98468.41;;;6.86;95.06
28927;BME280;16038;47.692;9.400;2024-01-27T10:49:58;98465.34;;;7.06;96.49
28927;BME280;16038;47.692;9.400;2024-01-27T10:52:27;98461.00;;;7.47;97.14
28927;BME280;16038;47.692;9.400;2024-01-27T10:55:01;98458.81;;;7.35;96.37
28927;BME280;16038;47.692;9.400;2024-01-27T10:57:33;98457.78;;;7.17;97.40
28927;BME280;16038;47.692;9.400;2024-01-27T11:00:00;98451.88;;;7.93;93.92
28927;BME280;16038;47.692;9.400;2024-01-27T11:02:28;98442.66;;;8.03;92.99
28927;BME280;16038;47.692;9.400;2024-01-27T11:04:58;98438.63;;;8.00;88.50
28927;BME280;16038;47.692;9.400;2024-01-27T11:07:25;98437.25;;;7.75;89.43
28927;BME280;16038;47.692;9.400;2024-01-27T11:09:50;98421.44;;;7.22;95.51
28927;BME280;16038;47.692;9.400;2024-01-27T11:12:21;98425.78;;;7.23;95.48
28927;BME280;16038;47.692;9.400;2024-01-27T11:14:47;98422.63;;;6.88;98.67
28927;BME280;16038;47.692;9.400;2024-01-27T11:17:14;98419.91;;;6.88;100.00
28927;BME280;16038;47.692;9.400;2024-01-27T11:19:41;98419.03;;;7.48;100.00
28927;BME280;16038;47.692;9.400;2024-01-27T11:22:06;98410.44;;;7.13;100.00
28927;BME280;16038;47.692;9.400;2024-01-27T11:24:32;98413.75;;;7.38;100.00
28927;BME280;16038;47.692;9.400;2024-01-27T11:27:04;98395.69;;;7.00;100.00
28927;BME280;16038;47.692;9.400;2024-01-27T11:29:30;98393.38;;;7.49;100.00
28927;BME280;16038;47.692;9.400;2024-01-27T11:32:00;98394.19;;;8.00;100.00
28927;BME280;16038;47.692;9.400;2024-01-27T11:34:27;98385.66;;;7.65;100.00
28927;BME280;16038;47.692;9.400;2024-01-27T11:36:52;98394.69;;;7.10;100.00
28927;BME280;16038;47.692;9.400;2024-01-27T11:39:28;98389.13;;;7.01;100.00
28927;BME280;16038;47.692;9.400;2024-01-27T11:42:11;98381.75;;;7.02;100.00
28927;BME280;16038;47.692;9.400;2024-01-27T11:44:40;98383.66;;;7.71;100.00
28927;BME280;16038;47.692;9.400;2024-01-27T11:47:17;98378.16;;;8.44;100.00
28927;BME280;16038;47.692;9.400;2024-01-27T11:49:44;98389.81;;;8.89;98.26
28927;BME280;16038;47.692;9.400;2024-01-27T11:52:15;98385.88;;;9.04;98.47
28927;BME280;16038;47.692;9.400;2024-01-27T11:54:40;98393.25;;;9.04;96.69
28927;BME280;16038;47.692;9.400;2024-01-27T11:57:06;98388.53;;;8.19;97.33
28927;BME280;16038;47.692;9.400;2024-01-27T11:59:33;98391.47;;;8.68;97.52
28927;BME280;16038;47.692;9.400;2024-01-27T12:02:00;98391.06;;;8.83;98.72
28927;BME280;16038;47.692;9.400;2024-01-27T12:04:26;98389.72;;;8.04;100.00
28927;BME280;16038;47.692;9.400;2024-01-27T12:06:51;98394.69;;;7.88;100.00
28927;BME280;16038;47.692;9.400;2024-01-27T12:09:17;98388.59;;;8.28;100.00
28927;BME280;16038;47.692;9.400;2024-01-27T12:11:43;98383.03;;;10.10;98.90
28927;BME280;16038;47.692;9.400;2024-01-27T12:14:08;98386.66;;;9.53;92.05
28927;BME280;16038;47.692;9.400;2024-01-27T12:16:34;98378.88;;;8.58;99.59
28927;BME280;16038;47.692;9.400;2024-01-27T12:19:01;98375.69;;;7.97;100.00
28927;BME280;16038;47.692;9.400;2024-01-27T12:21:26;98376.22;;;8.44;100.00
28927;BME280;16038;47.692;9.400;2024-01-27T12:23:53;98377.13;;;8.39;100.00
28927;BME280;16038;47.692;9.400;2024-01-27T12:26:23;98373.63;;;8.02;100.00
28927;BME280;16038;47.692;9.400;2024-01-27T12:28:49;98367.06;;;8.71;100.00
28927;BME280;16038;47.692;9.400;2024-01-27T12:31:16;98365.47;;;8.70;100.00
28927;BME280;16038;47.692;9.400;2024-01-27T12:33:53;98374.56;;;7.98;100.00
28927;BME280;16038;47.692;9.400;2024-01-27T12:36:20;98367.72;;;7.87;100.00
28927;BME280;16038;47.692;9.400;2024-01-27T12:38:59;98356.47;;;8.02;100.00
28927;BME280;16038;47.692;9.400;2024-01-27T12:41:26;98340.97;;;8.88;100.00
28927;BME280;16038;47.692;9.400;2024-01-27T12:43:55;98332.75;;;9.54;93.61
28927;BME280;16038;47.692;9.400;2024-01-27T12:46:21;98343.03;;;10.62;93.59
28927;BME280;16038;47.692;9.400;2024-01-27T12:48:46;98354.66;;;11.36;87.69
28927;BME280;16038;47.692;9.400;2024-01-27T12:51:11;98345.19;;;9.69;94.80
28927;BME280;16038;47.692;9.400;2024-01-27T12:53:41;98347.41;;;10.54;90.31
28927;BME280;16038;47.692;9.400;2024-01-27T12:56:10;98344.34;;;10.47;85.63